createdAt,value
2016-03-02T00:00:54.418Z,0
2016-03-02T00:01:54.453Z,0
2016-03-02T00:02:54.456Z,0
2016-03-02T00:03:54.504Z,0
2016-03-02T00:04:54.492Z,0
2016-03-02T00:05:54.495Z,0
2016-03-02T00:06:54.513Z,0
2016-03-02T00:07:54.515Z,0
2016-03-02T00:08:54.550Z,0
2016-03-02T00:09:54.536Z,0
2016-03-02T00:10:54.570Z,0
2016-03-02T00:11:54.588Z,0
2016-03-02T00:12:54.608Z,0
2016-03-02T00:13:54.610Z,0
2016-03-02T00:14:54.488Z,0
2016-03-02T00:15:54.662Z,0
2016-03-02T00:16:54.680Z,0
2016-03-02T00:17:54.667Z,0
2016-03-02T00:18:54.702Z,0
2016-03-02T00:19:54.705Z,0
2016-03-02T00:20:54.722Z,0
2016-03-02T00:21:54.724Z,0
2016-03-02T00:22:54.791Z,0
2016-03-02T00:23:54.746Z,0
2016-03-02T00:24:54.765Z,0
2016-03-02T00:25:54.799Z,0
2016-03-02T00:26:54.816Z,0
2016-03-02T00:27:54.851Z,0
2016-03-02T00:28:54.837Z,0
2016-03-02T00:29:54.857Z,0
2016-03-02T00:30:54.859Z,0
2016-03-02T00:31:54.909Z,0
2016-03-02T00:32:54.895Z,0
2016-03-02T00:33:54.929Z,0
2016-03-02T00:34:54.917Z,0
2016-03-02T00:35:54.935Z,0
2016-03-02T00:36:54.985Z,0
2016-03-02T00:37:54.987Z,0
2016-03-02T00:38:54.973Z,0
2016-03-02T00:39:54.993Z,0
2016-03-02T00:40:55.011Z,0
2016-03-02T00:41:55.029Z,0
2016-03-02T00:42:55.031Z,0
2016-03-02T00:43:55.066Z,0
2016-03-02T00:44:55.068Z,0
2016-03-02T00:45:55.117Z,0
2016-03-02T00:46:55.120Z,0
2016-03-02T00:47:55.123Z,0
2016-03-02T00:48:55.157Z,0
2016-03-02T00:49:55.144Z,0
2016-03-02T00:50:55.178Z,0
2016-03-02T00:51:55.180Z,0
2016-03-02T00:52:55.215Z,0
2016-03-02T00:53:55.217Z,0
2016-03-02T00:54:55.267Z,0
2016-03-02T00:55:55.223Z,0
2016-03-02T00:56:55.257Z,0
2016-03-02T00:57:55.260Z,0
2016-03-02T00:58:55.309Z,0
2016-03-02T00:59:55.280Z,0
2016-03-02T01:00:55.315Z,0
2016-03-02T01:01:55.333Z,0
2016-03-02T01:02:55.367Z,0
2016-03-02T01:03:55.353Z,0
2016-03-02T01:04:55.404Z,0
2016-03-02T01:05:55.406Z,0
2016-03-02T01:06:55.440Z,0
2016-03-02T01:07:55.426Z,0
2016-03-02T01:08:55.414Z,0
2016-03-02T01:09:55.432Z,0
2016-03-02T01:10:55.450Z,0
2016-03-02T01:11:55.454Z,0
2016-03-02T01:12:55.487Z,0
2016-03-02T01:13:55.505Z,0
2016-03-02T01:14:55.524Z,0
2016-03-02T01:15:55.527Z,0
2016-03-02T01:16:55.545Z,0
2016-03-02T01:17:55.564Z,0
2016-03-02T01:18:55.581Z,0
2016-03-02T01:19:55.584Z,0
2016-03-02T01:20:55.602Z,0
2016-03-02T01:21:55.621Z,0
2016-03-02T01:22:55.655Z,0
2016-03-02T01:23:55.657Z,0
2016-03-02T01:24:55.660Z,0
2016-03-02T01:25:55.679Z,0
2016-03-02T01:26:55.681Z,0
2016-03-02T01:27:55.699Z,0
2016-03-02T01:28:55.718Z,0
2016-03-02T01:29:55.736Z,0
2016-03-02T01:30:55.754Z,0
2016-03-02T01:31:55.773Z,0
2016-03-02T01:32:55.635Z,0
2016-03-02T01:33:55.793Z,0
2016-03-02T01:34:55.796Z,0
2016-03-02T01:35:55.815Z,0
2016-03-02T01:36:55.849Z,0
2016-03-02T01:37:55.836Z,0
2016-03-02T01:38:55.854Z,0
2016-03-02T01:39:55.873Z,0
2016-03-02T01:40:55.890Z,0
2016-03-02T01:41:55.909Z,0
2016-03-02T01:42:55.912Z,0
2016-03-02T01:43:55.945Z,0
2016-03-02T01:44:55.948Z,0
2016-03-02T01:45:55.982Z,0
2016-03-02T01:46:55.986Z,0
2016-03-02T01:47:56.019Z,0
2016-03-02T01:48:55.866Z,0
2016-03-02T01:49:56.025Z,0
2016-03-02T01:50:56.074Z,0
2016-03-02T01:51:56.044Z,0
2016-03-02T01:52:56.064Z,0
2016-03-02T01:53:56.097Z,0
2016-03-02T01:54:56.100Z,0
2016-03-02T01:55:56.134Z,0
2016-03-02T01:56:56.137Z,0
2016-03-02T01:57:56.155Z,0
2016-03-02T01:58:56.173Z,0
2016-03-02T01:59:56.192Z,0
2016-03-02T02:00:56.194Z,0
2016-03-02T02:01:56.275Z,0
2016-03-02T02:02:56.215Z,0
2016-03-02T02:03:56.218Z,0
2016-03-02T02:04:56.252Z,0
2016-03-02T02:05:56.186Z,0
2016-03-02T02:06:56.298Z,0
2016-03-02T02:07:56.286Z,0
2016-03-02T02:08:56.335Z,0
2016-03-02T02:09:56.306Z,0
2016-03-02T02:10:56.325Z,0
2016-03-02T02:11:56.343Z,0
2016-03-02T02:12:56.361Z,0
2016-03-02T02:13:56.380Z,0
2016-03-02T02:14:56.383Z,0
2016-03-02T02:15:56.416Z,0
2016-03-02T02:16:56.482Z,0
2016-03-02T02:17:56.438Z,0
2016-03-02T02:18:56.440Z,0
2016-03-02T02:19:56.505Z,0
2016-03-02T02:20:56.477Z,0
2016-03-02T02:21:56.480Z,0
2016-03-02T02:22:56.513Z,0
2016-03-02T02:23:56.532Z,0
2016-03-02T02:24:56.550Z,0
2016-03-02T02:25:56.552Z,0
2016-03-02T02:26:56.571Z,0
2016-03-02T02:27:56.574Z,0
2016-03-02T02:28:56.592Z,0
2016-03-02T02:29:56.610Z,0
2016-03-02T02:30:56.628Z,0
2016-03-02T02:31:56.648Z,0
2016-03-02T02:32:56.665Z,0
2016-03-02T02:33:56.512Z,0
2016-03-02T02:34:56.702Z,0
2016-03-02T02:35:56.689Z,0
2016-03-02T02:36:56.769Z,0
2016-03-02T02:37:56.742Z,0
2016-03-02T02:38:56.759Z,0
2016-03-02T02:39:56.747Z,0
2016-03-02T02:40:56.764Z,0
2016-03-02T02:41:56.799Z,0
2016-03-02T02:42:56.802Z,0
2016-03-02T02:43:56.663Z,0
2016-03-02T02:44:56.823Z,0
2016-03-02T02:45:56.856Z,0
2016-03-02T02:46:56.874Z,0
2016-03-02T02:47:56.893Z,0
2016-03-02T02:48:56.896Z,0
2016-03-02T02:49:56.774Z,0
2016-03-02T02:50:56.932Z,0
2016-03-02T02:51:56.966Z,0
2016-03-02T02:52:56.954Z,0
2016-03-02T02:53:56.987Z,0
2016-03-02T02:54:56.975Z,0
2016-03-02T02:55:56.993Z,0
2016-03-02T02:56:56.996Z,0
2016-03-02T02:57:57.029Z,0
2016-03-02T02:58:57.048Z,0
2016-03-02T02:59:57.051Z,0
2016-03-02T03:00:57.084Z,0
2016-03-02T03:01:57.087Z,0
2016-03-02T03:02:57.121Z,0
2016-03-02T03:03:57.108Z,0
2016-03-02T03:04:57.173Z,0
2016-03-02T03:05:57.145Z,0
2016-03-02T03:06:57.179Z,0
2016-03-02T03:07:57.181Z,0
2016-03-02T03:08:57.200Z,0
2016-03-02T03:09:57.203Z,0
2016-03-02T03:10:57.205Z,0
2016-03-02T03:11:57.238Z,0
2016-03-02T03:12:57.242Z,0
2016-03-02T03:13:57.260Z,0
2016-03-02T03:14:57.263Z,0
2016-03-02T03:15:57.156Z,0
2016-03-02T03:16:57.299Z,0
2016-03-02T03:17:57.333Z,0
2016-03-02T03:18:57.335Z,0
2016-03-02T03:19:57.870Z,0
2016-03-02T03:20:57.372Z,0
2016-03-02T03:21:57.406Z,0
2016-03-02T03:22:57.393Z,0
2016-03-02T03:23:57.427Z,0
2016-03-02T03:24:57.415Z,0
2016-03-02T03:25:57.480Z,0
2016-03-02T03:26:57.436Z,0
2016-03-02T03:27:57.501Z,0
2016-03-02T03:28:57.471Z,0
2016-03-02T03:29:57.522Z,0
2016-03-02T03:30:57.509Z,0
2016-03-02T03:31:57.543Z,0
2016-03-02T03:32:57.529Z,0
2016-03-02T03:33:57.579Z,0
2016-03-02T03:34:57.567Z,0
2016-03-02T03:35:57.615Z,0
2016-03-02T03:36:57.619Z,0
2016-03-02T03:37:57.621Z,0
2016-03-02T03:38:57.655Z,0
2016-03-02T03:39:57.486Z,0
2016-03-02T03:40:57.661Z,0
2016-03-02T03:41:57.756Z,0
2016-03-02T03:42:57.681Z,0
2016-03-02T03:43:57.747Z,0
2016-03-02T03:44:57.719Z,0
2016-03-02T03:45:57.736Z,0
2016-03-02T03:46:57.599Z,0
2016-03-02T03:47:57.773Z,0
2016-03-02T03:48:57.807Z,0
2016-03-02T03:49:57.872Z,0
2016-03-02T03:50:57.796Z,0
2016-03-02T03:51:57.846Z,0
2016-03-02T03:52:57.833Z,0
2016-03-02T03:53:57.851Z,0
2016-03-02T03:54:57.871Z,0
2016-03-02T03:55:57.904Z,0
2016-03-02T03:56:57.907Z,0
2016-03-02T03:57:57.910Z,0
2016-03-02T03:58:57.927Z,0
2016-03-02T03:59:57.930Z,0
2016-03-02T04:00:57.965Z,0
2016-03-02T04:01:57.952Z,0
2016-03-02T04:02:57.985Z,0
2016-03-02T04:03:57.831Z,0
2016-03-02T04:04:58.007Z,0
2016-03-02T04:05:58.025Z,0
2016-03-02T04:06:58.043Z,0
2016-03-02T04:07:58.061Z,0
2016-03-02T04:08:58.064Z,0
2016-03-02T04:09:58.098Z,0
2016-03-02T04:10:58.101Z,0
2016-03-02T04:11:57.963Z,0
2016-03-02T04:12:58.137Z,0
2016-03-02T04:13:58.155Z,0
2016-03-02T04:14:58.189Z,0
2016-03-02T04:15:58.208Z,0
2016-03-02T04:16:58.194Z,0
2016-03-02T04:17:58.198Z,0
2016-03-02T04:18:58.216Z,0
2016-03-02T04:19:58.233Z,0
2016-03-02T04:20:58.252Z,0
2016-03-02T04:21:58.271Z,0
2016-03-02T04:22:58.289Z,0
2016-03-02T04:23:58.291Z,0
2016-03-02T04:24:58.294Z,0
2016-03-02T04:25:58.313Z,0
2016-03-02T04:26:58.346Z,0
2016-03-02T04:27:58.350Z,0
2016-03-02T04:28:58.368Z,0
2016-03-02T04:29:58.386Z,0
2016-03-02T04:30:58.404Z,0
2016-03-02T04:31:58.438Z,0
2016-03-02T04:32:58.441Z,0
2016-03-02T04:33:58.475Z,0
2016-03-02T04:34:58.462Z,0
2016-03-02T04:35:58.246Z,0
2016-03-02T04:36:58.514Z,0
2016-03-02T04:37:58.486Z,0
2016-03-02T04:38:58.520Z,0
2016-03-02T04:39:58.538Z,0
2016-03-02T04:40:58.540Z,0
2016-03-02T04:41:58.403Z,0
2016-03-02T04:42:58.578Z,0
2016-03-02T04:43:58.596Z,0
2016-03-02T04:44:58.614Z,0
2016-03-02T04:45:58.648Z,0
2016-03-02T04:46:58.666Z,0
2016-03-02T04:47:58.669Z,0
2016-03-02T04:48:58.672Z,0
2016-03-02T04:49:58.674Z,0
2016-03-02T04:50:58.724Z,0
2016-03-02T04:51:58.710Z,0
2016-03-02T04:52:58.714Z,0
2016-03-02T04:53:58.747Z,0
2016-03-02T04:54:58.749Z,0
2016-03-02T04:55:58.800Z,0
2016-03-02T04:56:58.615Z,0
2016-03-02T04:57:58.821Z,0
2016-03-02T04:58:58.808Z,0
2016-03-02T04:59:58.857Z,0
2016-03-02T05:00:58.844Z,0
2016-03-02T05:01:58.893Z,0
2016-03-02T05:02:58.866Z,0
2016-03-02T05:03:58.899Z,0
2016-03-02T05:04:58.902Z,0
2016-03-02T05:05:58.951Z,0
2016-03-02T05:06:58.939Z,0
2016-03-02T05:07:58.942Z,0
2016-03-02T05:08:58.959Z,0
2016-03-02T05:09:58.963Z,0
2016-03-02T05:10:58.996Z,0
2016-03-02T05:11:59.015Z,0
2016-03-02T05:12:59.018Z,0
2016-03-02T05:13:59.036Z,0
2016-03-02T05:14:59.054Z,0
2016-03-02T05:15:59.072Z,0
2016-03-02T05:16:59.075Z,0
2016-03-02T05:17:59.108Z,0
2016-03-02T05:18:59.111Z,0
2016-03-02T05:19:59.145Z,0
2016-03-02T05:20:59.148Z,0
2016-03-02T05:21:59.150Z,0
2016-03-02T05:22:59.169Z,0
2016-03-02T05:23:59.188Z,0
2016-03-02T05:24:59.222Z,0
2016-03-02T05:25:59.224Z,0
2016-03-02T05:26:59.243Z,0
2016-03-02T05:27:59.292Z,0
2016-03-02T05:28:59.263Z,0
2016-03-02T05:29:59.266Z,0
2016-03-02T05:30:59.285Z,0
2016-03-02T05:31:59.287Z,0
2016-03-02T05:32:59.305Z,0
2016-03-02T05:33:59.324Z,0
2016-03-02T05:34:59.358Z,0
2016-03-02T05:35:59.392Z,0
2016-03-02T05:36:59.409Z,0
2016-03-02T05:37:59.413Z,0
2016-03-02T05:38:59.400Z,0
2016-03-02T05:39:59.434Z,0
2016-03-02T05:40:59.437Z,0
2016-03-02T05:41:59.439Z,0
2016-03-02T05:42:59.457Z,0
2016-03-02T05:43:59.492Z,0
2016-03-02T05:44:59.494Z,0
2016-03-02T05:45:59.512Z,0
2016-03-02T05:46:59.530Z,0
2016-03-02T05:47:59.533Z,0
2016-03-02T05:48:59.552Z,0
2016-03-02T05:49:59.554Z,0
2016-03-02T05:50:59.589Z,0
2016-03-02T05:51:59.606Z,0
2016-03-02T05:52:59.625Z,0
2016-03-02T05:53:59.628Z,0
2016-03-02T05:54:59.646Z,0
2016-03-02T05:55:59.664Z,0
2016-03-02T05:56:59.666Z,0
2016-03-02T05:57:59.701Z,0
2016-03-02T05:58:59.719Z,0
2016-03-02T05:59:59.737Z,0
2016-03-02T06:00:59.741Z,0
2016-03-02T06:01:59.743Z,0
2016-03-02T06:02:59.760Z,0
2016-03-02T06:03:59.779Z,0
2016-03-02T06:04:59.813Z,0
2016-03-02T06:05:59.769Z,0
2016-03-02T06:06:59.834Z,0
2016-03-02T06:07:59.853Z,0
2016-03-02T06:08:59.856Z,0
2016-03-02T06:09:59.858Z,0
2016-03-02T06:10:59.893Z,0
2016-03-02T06:11:59.895Z,0
2016-03-02T06:12:59.929Z,0
2016-03-02T06:13:59.947Z,0
2016-03-02T06:14:59.950Z,0
2016-03-02T06:15:59.953Z,0
2016-03-02T06:16:59.986Z,0
2016-03-02T06:17:59.989Z,0
2016-03-02T06:19:00.008Z,0
2016-03-02T06:20:00.010Z,0
2016-03-02T06:21:00.044Z,0
2016-03-02T06:22:00.047Z,0
2016-03-02T06:23:00.080Z,0
2016-03-02T06:24:00.083Z,0
2016-03-02T06:25:00.102Z,0
2016-03-02T06:26:00.104Z,0
2016-03-02T06:27:00.107Z,0
2016-03-02T06:28:00.140Z,0
2016-03-02T06:29:00.175Z,0
2016-03-02T06:30:00.177Z,0
2016-03-02T06:31:00.040Z,0
2016-03-02T06:32:00.199Z,0
2016-03-02T06:33:00.216Z,0
2016-03-02T06:34:00.344Z,0
2016-03-02T06:35:00.363Z,0
2016-03-02T06:36:00.271Z,0
2016-03-02T06:37:00.384Z,0
2016-03-02T06:38:00.465Z,0
2016-03-02T06:39:00.155Z,0
2016-03-02T06:40:00.360Z,0
2016-03-02T06:41:00.442Z,5
2016-03-02T06:42:00.475Z,5
2016-03-02T06:43:00.479Z,5
2016-03-02T06:44:00.387Z,5
2016-03-02T06:45:00.514Z,5
2016-03-02T06:46:00.533Z,5
2016-03-02T06:47:00.426Z,5
2016-03-02T06:48:00.461Z,0
2016-03-02T06:49:00.479Z,0
2016-03-02T06:50:00.481Z,0
2016-03-02T06:51:00.499Z,0
2016-03-02T06:52:00.502Z,0
2016-03-02T06:53:00.630Z,0
2016-03-02T06:54:00.539Z,0
2016-03-02T06:55:00.542Z,0
2016-03-02T06:56:00.669Z,0
2016-03-02T06:57:00.578Z,0
2016-03-02T06:58:00.627Z,0
2016-03-02T06:59:00.678Z,0
2016-03-02T07:00:00.664Z,0
2016-03-02T07:01:00.652Z,0
2016-03-02T07:02:00.669Z,0
2016-03-02T07:03:00.861Z,0
2016-03-02T07:04:00.785Z,0
2016-03-02T07:05:00.709Z,0
2016-03-02T07:06:00.727Z,5
2016-03-02T07:07:00.824Z,5
2016-03-02T07:08:00.796Z,5
2016-03-02T07:09:00.752Z,5
2016-03-02T07:10:00.785Z,5
2016-03-02T07:11:00.788Z,5
2016-03-02T07:12:00.806Z,5
2016-03-02T07:13:00.872Z,5
2016-03-02T07:14:01.015Z,5
2016-03-02T07:15:00.892Z,10
2016-03-02T07:16:00.896Z,10
2016-03-02T07:17:00.882Z,10
2016-03-02T07:18:00.901Z,10
2016-03-02T07:19:00.919Z,10
2016-03-02T07:20:00.922Z,10
2016-03-02T07:21:00.781Z,10
2016-03-02T07:22:00.956Z,15
2016-03-02T07:23:00.973Z,15
2016-03-02T07:24:01.211Z,15
2016-03-02T07:25:01.042Z,15
2016-03-02T07:26:01.045Z,15
2016-03-02T07:27:01.031Z,10
2016-03-02T07:28:01.051Z,10
2016-03-02T07:29:01.053Z,10
2016-03-02T07:30:01.072Z,10
2016-03-02T07:31:01.090Z,10
2016-03-02T07:32:01.123Z,10
2016-03-02T07:33:01.142Z,10
2016-03-02T07:34:01.144Z,10
2016-03-02T07:35:01.164Z,5
2016-03-02T07:36:01.167Z,10
2016-03-02T07:37:01.184Z,10
2016-03-02T07:38:01.203Z,10
2016-03-02T07:39:01.205Z,10
2016-03-02T07:40:01.239Z,5
2016-03-02T07:41:01.241Z,5
2016-03-02T07:42:01.275Z,5
2016-03-02T07:43:01.278Z,5
2016-03-02T07:44:01.296Z,5
2016-03-02T07:45:01.316Z,5
2016-03-02T07:46:01.318Z,5
2016-03-02T07:47:01.336Z,5
2016-03-02T07:48:01.354Z,5
2016-03-02T07:49:01.404Z,5
2016-03-02T07:50:01.422Z,5
2016-03-02T07:51:01.410Z,5
2016-03-02T07:52:01.427Z,5
2016-03-02T07:53:01.429Z,5
2016-03-02T07:54:01.464Z,5
2016-03-02T07:55:01.467Z,5
2016-03-02T07:56:01.484Z,5
2016-03-02T07:57:01.503Z,5
2016-03-02T07:58:01.506Z,10
2016-03-02T07:59:01.525Z,10
2016-03-02T08:00:01.542Z,10
2016-03-02T08:01:01.561Z,10
2016-03-02T08:02:01.595Z,10
2016-03-02T08:03:01.691Z,10
2016-03-02T08:04:01.616Z,10
2016-03-02T08:05:01.634Z,10
2016-03-02T08:06:01.637Z,10
2016-03-02T08:07:01.656Z,10
2016-03-02T08:08:01.674Z,15
2016-03-02T08:09:01.692Z,15
2016-03-02T08:10:01.695Z,10
2016-03-02T08:11:01.697Z,10
2016-03-02T08:12:01.716Z,10
2016-03-02T08:13:01.750Z,10
2016-03-02T08:14:01.784Z,10
2016-03-02T08:15:01.786Z,10
2016-03-02T08:16:01.804Z,10
2016-03-02T08:17:01.823Z,10
2016-03-02T08:18:01.826Z,10
2016-03-02T08:19:01.844Z,10
2016-03-02T08:20:01.863Z,10
2016-03-02T08:21:01.897Z,5
2016-03-02T08:22:01.883Z,5
2016-03-02T08:23:01.902Z,5
2016-03-02T08:24:01.935Z,10
2016-03-02T08:25:01.954Z,10
2016-03-02T08:26:01.940Z,10
2016-03-02T08:27:01.959Z,10
2016-03-02T08:28:01.978Z,10
2016-03-02T08:29:02.012Z,10
2016-03-02T08:30:01.999Z,10
2016-03-02T08:31:02.032Z,10
2016-03-02T08:32:02.051Z,10
2016-03-02T08:33:02.070Z,10
2016-03-02T08:34:02.072Z,10
2016-03-02T08:35:02.075Z,10
2016-03-02T08:36:01.952Z,10
2016-03-02T08:37:02.142Z,10
2016-03-02T08:38:01.995Z,10
2016-03-02T08:39:02.171Z,10
2016-03-02T08:40:02.142Z,15
2016-03-02T08:41:02.489Z,25
2016-03-02T08:42:02.133Z,25
2016-03-02T08:43:02.125Z,25
2016-03-02T08:44:02.152Z,25
2016-03-02T08:45:02.182Z,20
2016-03-02T08:46:02.163Z,20
2016-03-02T08:47:02.379Z,20
2016-03-02T08:48:02.191Z,20
2016-03-02T08:49:02.192Z,20
2016-03-02T08:50:02.239Z,20
2016-03-02T08:51:02.226Z,20
2016-03-02T08:52:02.241Z,25
2016-03-02T08:53:02.242Z,25
2016-03-02T08:54:02.275Z,25
2016-03-02T08:55:02.309Z,25
2016-03-02T08:56:02.311Z,25
2016-03-02T08:57:02.344Z,20
2016-03-02T08:58:02.330Z,20
2016-03-02T08:59:02.381Z,20
2016-03-02T09:00:02.399Z,20
2016-03-02T09:01:02.401Z,20
2016-03-02T09:02:02.419Z,20
2016-03-02T09:03:02.594Z,20
2016-03-02T09:04:02.424Z,25
2016-03-02T09:05:02.459Z,20
2016-03-02T09:06:02.305Z,20
2016-03-02T09:07:02.465Z,20
2016-03-02T09:08:02.499Z,20
2016-03-02T09:09:02.517Z,20
2016-03-02T09:10:02.535Z,25
2016-03-02T09:11:02.537Z,25
2016-03-02T09:12:02.571Z,25
2016-03-02T09:13:02.574Z,25
2016-03-02T09:14:02.592Z,25
2016-03-02T09:15:02.626Z,25
2016-03-02T09:16:02.645Z,25
2016-03-02T09:17:02.725Z,25
2016-03-02T09:18:02.651Z,25
2016-03-02T09:19:02.669Z,25
2016-03-02T09:20:02.687Z,25
2016-03-02T09:21:02.706Z,25
2016-03-02T09:22:02.708Z,25
2016-03-02T09:23:02.742Z,25
2016-03-02T09:24:02.760Z,25
2016-03-02T09:25:02.763Z,25
2016-03-02T09:26:02.781Z,25
2016-03-02T09:27:02.816Z,25
2016-03-02T09:28:02.864Z,25
2016-03-02T09:29:02.852Z,25
2016-03-02T09:30:02.917Z,25
2016-03-02T09:31:02.889Z,25
2016-03-02T09:32:02.938Z,25
2016-03-02T09:33:02.910Z,25
2016-03-02T09:34:02.943Z,25
2016-03-02T09:35:02.946Z,25
2016-03-02T09:36:02.980Z,25
2016-03-02T09:37:03.060Z,25
2016-03-02T09:38:03.002Z,25
2016-03-02T09:39:03.129Z,25
2016-03-02T09:40:03.163Z,25
2016-03-02T09:41:03.182Z,25
2016-03-02T09:42:03.090Z,25
2016-03-02T09:43:03.218Z,25
2016-03-02T09:44:03.236Z,25
2016-03-02T09:45:03.114Z,25
2016-03-02T09:46:03.131Z,25
2016-03-02T09:47:03.150Z,25
2016-03-02T09:48:03.168Z,25
2016-03-02T09:49:03.155Z,25
2016-03-02T09:50:03.220Z,25
2016-03-02T09:51:03.208Z,25
2016-03-02T09:52:03.148Z,30
2016-03-02T09:53:03.245Z,30
2016-03-02T09:54:03.263Z,30
2016-03-02T09:55:03.328Z,30
2016-03-02T09:56:03.283Z,30
2016-03-02T09:57:03.302Z,30
2016-03-02T09:58:03.304Z,30
2016-03-02T09:59:03.354Z,30
2016-03-02T10:00:03.450Z,30
2016-03-02T10:01:03.375Z,30
2016-03-02T10:02:03.393Z,30
2016-03-02T10:03:03.459Z,30
2016-03-02T10:04:03.430Z,30
2016-03-02T10:05:03.433Z,30
2016-03-02T10:06:03.498Z,30
2016-03-02T10:07:03.501Z,30
2016-03-02T10:08:03.535Z,30
2016-03-02T10:09:03.506Z,25
2016-03-02T10:10:03.557Z,25
2016-03-02T10:11:03.543Z,25
2016-03-02T10:12:03.593Z,30
2016-03-02T10:13:03.579Z,30
2016-03-02T10:14:03.598Z,30
2016-03-02T10:15:03.631Z,30
2016-03-02T10:16:03.618Z,30
2016-03-02T10:17:03.653Z,30
2016-03-02T10:18:03.670Z,30
2016-03-02T10:19:03.689Z,30
2016-03-02T10:20:03.692Z,30
2016-03-02T10:21:03.742Z,30
2016-03-02T10:22:03.792Z,30
2016-03-02T10:23:03.778Z,30
2016-03-02T10:24:03.765Z,30
2016-03-02T10:25:03.800Z,30
2016-03-02T10:26:03.864Z,30
2016-03-02T10:27:03.820Z,30
2016-03-02T10:28:03.838Z,30
2016-03-02T10:29:03.888Z,30
2016-03-02T10:30:03.860Z,30
2016-03-02T10:31:03.909Z,30
2016-03-02T10:32:04.022Z,30
2016-03-02T10:33:03.946Z,30
2016-03-02T10:34:03.933Z,30
2016-03-02T10:35:03.966Z,30
2016-03-02T10:36:03.251Z,30
2016-03-02T10:37:04.034Z,30
2016-03-02T10:38:04.038Z,30
2016-03-02T10:39:04.040Z,30
2016-03-02T10:40:04.183Z,30
2016-03-02T10:41:04.061Z,30
2016-03-02T10:42:04.127Z,35
2016-03-02T10:43:04.098Z,35
2016-03-02T10:44:04.148Z,35
2016-03-02T10:45:04.134Z,35
2016-03-02T10:46:04.168Z,35
2016-03-02T10:47:04.171Z,35
2016-03-02T10:48:04.204Z,35
2016-03-02T10:49:04.207Z,35
2016-03-02T10:50:04.242Z,35
2016-03-02T10:51:04.259Z,30
2016-03-02T10:52:04.294Z,35
2016-03-02T10:53:04.484Z,35
2016-03-02T10:54:04.314Z,35
2016-03-02T10:55:04.364Z,30
2016-03-02T10:56:04.648Z,30
2016-03-02T10:57:04.651Z,30
2016-03-02T10:58:04.482Z,30
2016-03-02T10:59:04.422Z,30
2016-03-02T11:00:04.409Z,30
2016-03-02T11:01:04.536Z,35
2016-03-02T11:02:04.555Z,35
2016-03-02T11:03:04.480Z,30
2016-03-02T11:04:04.497Z,35
2016-03-02T11:05:04.533Z,35
2016-03-02T11:06:04.519Z,35
2016-03-02T11:07:04.662Z,35
2016-03-02T11:08:04.572Z,35
2016-03-02T11:09:04.668Z,35
2016-03-02T11:10:04.701Z,35
2016-03-02T11:11:04.766Z,30
2016-03-02T11:12:04.957Z,30
2016-03-02T11:13:04.632Z,25
2016-03-02T11:14:04.728Z,25
2016-03-02T11:15:04.731Z,25
2016-03-02T11:16:04.749Z,25
2016-03-02T11:17:04.736Z,25
2016-03-02T11:18:04.754Z,30
2016-03-02T11:19:04.757Z,25
2016-03-02T11:20:04.791Z,25
2016-03-02T11:21:04.637Z,30
2016-03-02T11:22:04.781Z,30
2016-03-02T11:23:04.923Z,30
2016-03-02T11:24:05.083Z,30
2016-03-02T11:25:04.945Z,30
2016-03-02T11:26:04.932Z,30
2016-03-02T11:27:04.951Z,35
2016-03-02T11:28:04.953Z,35
2016-03-02T11:29:05.050Z,35
2016-03-02T11:30:05.067Z,35
2016-03-02T11:31:04.977Z,35
2016-03-02T11:32:05.027Z,35
2016-03-02T11:33:05.092Z,35
2016-03-02T11:34:05.188Z,35
2016-03-02T11:35:05.253Z,35
2016-03-02T11:36:05.100Z,35
2016-03-02T11:37:05.211Z,35
2016-03-02T11:38:05.105Z,35
2016-03-02T11:39:05.155Z,35
2016-03-02T11:40:05.299Z,35
2016-03-02T11:41:05.332Z,35
2016-03-02T11:42:05.193Z,35
2016-03-02T11:43:05.306Z,30
2016-03-02T11:44:05.340Z,30
2016-03-02T11:45:05.358Z,30
2016-03-02T11:46:05.361Z,30
2016-03-02T11:47:05.379Z,30
2016-03-02T11:48:05.429Z,30
2016-03-02T11:49:05.431Z,35
2016-03-02T11:50:05.418Z,35
2016-03-02T11:51:05.359Z,35
2016-03-02T11:52:05.439Z,30
2016-03-02T11:53:05.427Z,30
2016-03-02T11:54:05.445Z,25
2016-03-02T11:55:05.448Z,25
2016-03-02T11:56:05.497Z,25
2016-03-02T11:57:05.500Z,30
2016-03-02T11:58:05.487Z,30
2016-03-02T11:59:05.520Z,30
2016-03-02T12:00:05.586Z,25
2016-03-02T12:01:05.823Z,25
2016-03-02T12:02:05.716Z,25
2016-03-02T12:03:05.704Z,25
2016-03-02T12:04:05.769Z,20
2016-03-02T12:05:05.630Z,25
2016-03-02T12:06:05.661Z,25
2016-03-02T12:07:05.664Z,25
2016-03-02T12:08:05.729Z,25
2016-03-02T12:09:05.841Z,30
2016-03-02T12:10:05.843Z,25
2016-03-02T12:11:05.753Z,20
2016-03-02T12:12:05.881Z,20
2016-03-02T12:13:05.789Z,20
2016-03-02T12:14:05.808Z,20
2016-03-02T12:15:05.935Z,20
2016-03-02T12:16:05.970Z,25
2016-03-02T12:17:05.862Z,20
2016-03-02T12:18:05.897Z,25
2016-03-02T12:19:05.899Z,20
2016-03-02T12:20:05.917Z,10
2016-03-02T12:21:05.998Z,15
2016-03-02T12:22:05.955Z,10
2016-03-02T12:23:05.972Z,10
2016-03-02T12:24:05.991Z,10
2016-03-02T12:25:06.134Z,10
2016-03-02T12:26:06.121Z,10
2016-03-02T12:27:06.139Z,5
2016-03-02T12:28:06.079Z,5
2016-03-02T12:29:06.238Z,5
2016-03-02T12:30:06.132Z,5
2016-03-02T12:31:06.243Z,10
2016-03-02T12:32:06.231Z,10
2016-03-02T12:33:06.187Z,10
2016-03-02T12:34:06.315Z,10
2016-03-02T12:35:06.410Z,10
2016-03-02T12:36:06.352Z,10
2016-03-02T12:37:06.478Z,10
2016-03-02T12:38:06.341Z,10
2016-03-02T12:39:06.282Z,15
2016-03-02T12:40:06.299Z,20
2016-03-02T12:41:06.333Z,20
2016-03-02T12:42:06.336Z,20
2016-03-02T12:43:06.370Z,15
2016-03-02T12:44:06.482Z,15
2016-03-02T12:45:06.391Z,15
2016-03-02T12:46:06.425Z,15
2016-03-02T12:47:06.443Z,20
2016-03-02T12:48:06.462Z,20
2016-03-02T12:49:06.511Z,20
2016-03-02T12:50:06.498Z,20
2016-03-02T12:51:06.517Z,25
2016-03-02T12:52:06.536Z,25
2016-03-02T12:53:06.553Z,25
2016-03-02T12:54:06.665Z,25
2016-03-02T12:55:06.589Z,25
2016-03-02T12:56:06.640Z,25
2016-03-02T12:57:06.627Z,25
2016-03-02T12:58:06.786Z,25
2016-03-02T12:59:06.663Z,25
2016-03-02T13:00:06.728Z,25
2016-03-02T13:01:06.841Z,30
2016-03-02T13:02:06.749Z,30
2016-03-02T13:03:06.971Z,30
2016-03-02T13:04:06.786Z,30
2016-03-02T13:05:06.992Z,30
2016-03-02T13:06:06.902Z,35
2016-03-02T13:07:06.841Z,35
2016-03-02T13:08:06.860Z,30
2016-03-02T13:09:06.863Z,30
2016-03-02T13:10:06.880Z,30
2016-03-02T13:11:06.899Z,30
2016-03-02T13:12:06.183Z,30
2016-03-02T13:13:07.060Z,30
2016-03-02T13:14:06.829Z,25
2016-03-02T13:15:07.051Z,25
2016-03-02T13:16:07.084Z,25
2016-03-02T13:17:07.009Z,25
2016-03-02T13:18:07.059Z,25
2016-03-02T13:19:07.061Z,25
2016-03-02T13:20:07.189Z,25
2016-03-02T13:21:07.192Z,25
2016-03-02T13:22:07.210Z,25
2016-03-02T13:23:07.134Z,25
2016-03-02T13:24:07.278Z,25
2016-03-02T13:25:07.250Z,25
2016-03-02T13:26:07.205Z,25
2016-03-02T13:27:07.395Z,25
2016-03-02T13:28:07.320Z,25
2016-03-02T13:29:07.275Z,25
2016-03-02T13:30:07.294Z,25
2016-03-02T13:31:07.281Z,25
2016-03-02T13:32:07.456Z,25
2016-03-02T13:33:07.349Z,20
2016-03-02T13:34:07.399Z,20
2016-03-02T13:35:07.386Z,20
2016-03-02T13:36:07.372Z,20
2016-03-02T13:37:07.438Z,20
2016-03-02T13:38:07.659Z,20
2016-03-02T13:39:07.538Z,15
2016-03-02T13:40:07.461Z,15
2016-03-02T13:41:07.479Z,15
2016-03-02T13:42:07.702Z,15
2016-03-02T13:43:07.594Z,15
2016-03-02T13:44:07.582Z,10
2016-03-02T13:45:07.538Z,10
2016-03-02T13:46:07.602Z,10
2016-03-02T13:47:07.590Z,10
2016-03-02T13:48:07.732Z,10
2016-03-02T13:49:07.643Z,10
2016-03-02T13:50:07.785Z,10
2016-03-02T13:51:07.678Z,10
2016-03-02T13:52:07.698Z,10
2016-03-02T13:53:07.809Z,10
2016-03-02T13:54:07.749Z,10
2016-03-02T13:55:07.595Z,10
2016-03-02T13:56:07.848Z,10
2016-03-02T13:57:07.789Z,10
2016-03-02T13:58:07.806Z,10
2016-03-02T13:59:07.841Z,10
2016-03-02T14:00:08.000Z,10
2016-03-02T14:01:08.050Z,10
2016-03-02T14:02:07.989Z,10
2016-03-02T14:03:08.008Z,10
2016-03-02T14:04:07.979Z,10
2016-03-02T14:05:07.950Z,10
2016-03-02T14:06:07.939Z,10
2016-03-02T14:07:08.112Z,10
2016-03-02T14:08:08.006Z,15
2016-03-02T14:09:08.134Z,15
2016-03-02T14:10:08.043Z,15
2016-03-02T14:11:08.265Z,15
2016-03-02T14:12:08.096Z,20
2016-03-02T14:13:08.161Z,20
2016-03-02T14:14:08.225Z,20
2016-03-02T14:15:08.245Z,20
2016-03-02T14:16:08.184Z,20
2016-03-02T14:17:08.312Z,15
2016-03-02T14:18:08.346Z,15
2016-03-02T14:19:08.270Z,15
2016-03-02T14:20:08.273Z,15
2016-03-02T14:21:08.308Z,15
2016-03-02T14:22:08.654Z,20
2016-03-02T14:23:08.485Z,20
2016-03-02T14:24:08.859Z,20
2016-03-02T14:25:09.952Z,15
2016-03-02T14:26:08.519Z,15
2016-03-02T14:27:08.652Z,15
2016-03-02T14:28:08.397Z,15
2016-03-02T14:29:13.208Z,20
2016-03-02T14:30:08.414Z,20
2016-03-02T14:31:08.448Z,20
2016-03-02T14:32:08.455Z,20
2016-03-02T14:33:08.536Z,20